Time;durP1;ratioP1;P1;durP2;ratioP2;P2;SDS_P1;SDS_P2;PMS_P1;PMS_P2;Temp;Humidity;BMP_temperature;BMP_pressure;BME280_temperature;BME280_humidity;BME280_pressure;Samples;Min_cycle;Max_cycle;Signal;HPM_P1;HPM_P2
2024/01/15 00:02:22;;;;;;;;;34.67;29.67;;;;;4.38;62.21;100630.31;5073947;28;45618;-81
2024/01/15 00:04:47;;;;;;;;;29.00;29.00;;;;;4.35;61.88;100620.00;5073334;28;45111;-81
2024/01/15 00:07:12;;;;;;;;;31.67;26.67;;;;;4.09;62.49;100567.44;5073148;28;45525;-80
2024/01/15 00:09:39;;;;;;;;;34.33;29.67;;;;;4.21;62.04;100565.75;5074261;28;44977;-80
2024/01/15 00:12:05;;;;;;;;;29.67;26.00;;;;;4.50;62.42;100619.78;5074489;28;45199;-81
2024/01/15 00:14:30;;;;;;;;;28.67;23.00;;;;;4.49;62.62;100602.31;5076291;28;45071;-79
2024/01/15 00:16:56;;;;;;;;;31.67;26.67;;;;;4.38;62.47;100575.91;5074925;28;45176;-80
2024/01/15 00:19:22;;;;;;;;;37.33;28.67;;;;;3.90;62.20;100488.13;5073810;28;45036;-81
2024/01/15 00:21:47;;;;;;;;;24.67;22.67;;;;;4.10;61.83;100534.06;5075006;28;45243;-80
2024/01/15 00:24:13;;;;;;;;;31.00;26.00;;;;;3.78;62.03;100479.28;5075782;28;44988;-80
2024/01/15 00:26:39;;;;;;;;;25.33;24.67;;;;;4.31;63.15;100561.50;5073682;28;45259;-79
2024/01/15 00:29:06;;;;;;;;;32.33;29.33;;;;;4.40;62.98;100586.31;5074122;28;45451;-79
2024/01/15 00:31:32;;;;;;;;;27.67;27.00;;;;;3.79;62.99;100491.47;5074547;28;45255;-79
2024/01/15 00:33:57;;;;;;;;;31.67;30.33;;;;;4.39;63.38;100585.47;5075521;28;44977;-79
2024/01/15 00:36:23;;;;;;;;;28.33;28.00;;;;;4.44;62.22;100582.53;5073748;28;45542;-80
2024/01/15 00:38:48;;;;;;;;;27.67;20.00;;;;;4.49;62.94;100583.88;5074180;28;45356;-79
2024/01/15 00:41:14;;;;;;;;;28.33;25.33;;;;;4.32;62.52;100550.03;5072528;28;45332;-80
2024/01/15 00:43:40;;;;;;;;;30.00;26.67;;;;;4.43;62.79;100565.06;5071986;28;45200;-79
2024/01/15 00:46:05;;;;;;;;;33.00;25.67;;;;;3.91;63.00;100488.00;5054114;28;45919;-82
2024/01/15 00:48:31;;;;;;;;;21.00;19.00;;;;;3.79;62.92;100454.66;5071386;28;45197;-79
2024/01/15 00:50:56;;;;;;;;;28.67;25.67;;;;;4.09;63.09;100500.81;5071498;28;45060;-80
2024/01/15 00:53:22;;;;;;;;;28.33;26.00;;;;;3.58;63.02;100414.94;5055256;28;45236;-79
2024/01/15 00:55:48;;;;;;;;;25.33;24.00;;;;;4.22;62.50;100512.16;5071071;28;45715;-79
2024/01/15 00:58:13;;;;;;;;;23.33;19.00;;;;;4.12;62.68;100497.97;5071300;28;45119;-78
2024/01/15 01:00:38;;;;;;;;;34.67;25.33;;;;;4.44;63.52;100551.78;5053592;28;45435;-78
2024/01/15 01:03:04;;;;;;;;;29.33;26.67;;;;;4.55;62.99;100548.38;5053463;28;45365;-79
2024/01/15 01:05:29;;;;;;;;;24.67;22.67;;;;;4.44;63.33;100519.38;5055600;28;46166;-78
2024/01/15 01:07:55;;;;;;;;;27.33;24.67;;;;;3.97;63.00;100436.75;5075430;28;45101;-79
2024/01/15 01:10:20;;;;;;;;;35.33;27.00;;;;;4.52;63.04;100527.53;5072580;28;45088;-78
2024/01/15 01:12:46;;;;;;;;;36.00;28.00;;;;;4.34;63.04;100495.47;5072842;28;45189;-80
2024/01/15 01:15:11;;;;;;;;;32.00;28.00;;;;;4.18;62.57;100465.94;5052733;28;45489;-78
2024/01/15 01:17:37;;;;;;;;;31.00;27.00;;;;;4.01;62.58;100437.41;5053338;28;45372;-81
2024/01/15 01:20:04;;;;;;;;;25.33;23.33;;;;;4.50;62.17;100511.84;5055839;28;45166;-79
2024/01/15 01:22:30;;;;;;;;;25.67;25.67;;;;;4.02;62.17;100439.09;5073367;28;45049;-79
2024/01/15 01:24:55;;;;;;;;;26.67;24.67;;;;;4.56;62.40;100531.63;5072534;28;45214;-78
2024/01/15 01:27:20;;;;;;;;;38.33;28.00;;;;;4.64;62.13;100541.63;5072078;28;45209;-79
2024/01/15 01:29:46;;;;;;;;;26.67;26.00;;;;;4.62;62.77;100533.00;5071049;28;45410;-77
2024/01/15 01:32:11;;;;;;;;;29.00;26.67;;;;;4.39;62.91;100500.41;5054767;28;45069;-79
2024/01/15 01:34:43;;;;;;;;;28.33;26.00;;;;;4.62;62.87;100541.72;5071533;28;45544;-78
2024/01/15 01:37:09;;;;;;;;;31.00;28.67;;;;;4.54;62.48;100526.47;5073274;28;45292;-79
2024/01/15 01:39:35;;;;;;;;;27.67;27.33;;;;;4.11;62.77;100452.41;5072769;28;44982;-79
2024/01/15 01:42:00;;;;;;;;;25.67;23.33;;;;;4.48;62.45;100513.75;5071989;28;45191;-79
2024/01/15 01:44:26;;;;;;;;;29.67;27.67;;;;;3.83;62.34;100424.59;5070692;28;45745;-79
2024/01/15 01:46:51;;;;;;;;;26.67;23.33;;;;;4.57;62.48;100526.25;5072262;28;44952;-80
2024/01/15 01:49:17;;;;;;;;;29.00;26.67;;;;;4.41;62.53;100504.63;5053252;28;44900;-79
2024/01/15 01:51:43;;;;;;;;;26.67;26.67;;;;;4.43;62.29;100486.09;5074479;28;45219;-79
2024/01/15 01:54:11;;;;;;;;;31.00;31.00;;;;;4.62;63.35;100525.94;5069426;28;45894;-79
2024/01/15 01:56:37;;;;;;;;;30.00;21.33;;;;;4.59;63.47;100532.22;5059306;28;45378;-78
2024/01/15 01:59:03;;;;;;;;;28.67;24.67;;;;;4.58;62.58;100522.66;5060121;28;45439;-78
2024/01/15 02:01:31;;;;;;;;;25.67;23.00;;;;;4.33;62.48;100487.69;5038405;28;45441;-78
2024/01/15 02:03:57;;;;;;;;;35.67;27.67;;;;;4.45;62.92;100507.88;5055256;28;46100;-79
2024/01/15 02:06:23;;;;;;;;;33.00;26.67;;;;;4.28;63.56;100478.34;5055927;28;45320;-80
2024/01/15 02:08:49;;;;;;;;;30.67;26.67;;;;;4.46;63.39;100506.94;5055356;28;45400;-80
2024/01/15 02:11:15;;;;;;;;;35.33;24.67;;;;;4.45;63.04;100507.88;5055977;28;45599;-80
2024/01/15 02:13:41;;;;;;;;;35.67;29.00;;;;;4.48;63.47;100502.38;5036827;28;47928;-79
2024/01/15 02:16:06;;;;;;;;;26.00;23.67;;;;;4.54;63.41;100499.31;5040438;28;45482;-81
2024/01/15 02:18:42;;;;;;;;;28.33;23.33;;;;;3.57;62.75;100333.59;5041636;28;45446;-79
2024/01/15 02:21:08;;;;;;;;;30.67;24.00;;;;;4.45;63.26;100490.28;5061092;28;45418;-80
2024/01/15 02:23:33;;;;;;;;;21.67;19.67;;;;;3.79;63.50;100381.06;5059951;28;46379;-79
2024/01/15 02:25:59;;;;;;;;;31.00;27.67;;;;;4.41;63.48;100467.78;5058811;28;45704;-78
2024/01/15 02:28:27;;;;;;;;;26.33;25.00;;;;;4.04;63.89;100395.09;5042234;28;45346;-80
2024/01/15 02:30:53;;;;;;;;;14.33;13.00;;;;;4.45;63.34;100453.44;5042693;28;45810;-80
2024/01/15 02:33:18;;;;;;;;;28.33;22.67;;;;;4.40;63.50;100458.19;5006221;28;45411;-79
2024/01/15 02:35:46;;;;;;;;;23.33;22.00;;;;;4.37;63.50;100468.09;5058351;28;45551;-80
2024/01/15 02:38:12;;;;;;;;;30.67;27.00;;;;;3.33;63.62;100296.75;5047764;28;45488;-80
2024/01/15 02:40:38;;;;;;;;;28.33;22.33;;;;;4.34;64.04;100471.78;5039513;28;45587;-79
2024/01/15 02:43:04;;;;;;;;;29.33;25.67;;;;;4.13;63.61;100458.38;5020639;28;48393;-78
2024/01/15 02:45:29;;;;;;;;;28.67;21.67;;;;;4.35;63.61;100484.00;5044847;28;45610;-78
2024/01/15 02:47:55;;;;;;;;;20.00;17.00;;;;;4.39;64.02;100480.19;5060812;28;45531;-80
2024/01/15 02:50:21;;;;;;;;;21.67;18.00;;;;;3.54;63.08;100333.81;5047309;28;45541;-80
2024/01/15 02:52:46;;;;;;;;;31.00;27.67;;;;;4.41;62.98;100486.22;5021726;28;46214;-79
2024/01/15 02:55:12;;;;;;;;;27.33;25.67;;;;;4.42;63.61;100485.25;5036638;28;45297;-80
2024/01/15 02:57:37;;;;;;;;;26.67;26.67;;;;;3.31;63.02;100307.38;5036170;28;45422;-79
2024/01/15 03:00:03;;;;;;;;;29.33;27.67;;;;;4.00;63.47;100409.38;5034660;28;45505;-78
2024/01/15 03:02:31;;;;;;;;;23.67;23.33;;;;;4.44;63.53;100471.97;5040370;28;45540;-78
2024/01/15 03:04:56;;;;;;;;;33.00;26.33;;;;;3.25;62.75;100275.44;5054699;28;45408;-79
2024/01/15 03:07:22;;;;;;;;;23.67;23.00;;;;;4.30;63.68;100444.03;5054401;28;45482;-79
2024/01/15 03:09:47;;;;;;;;;32.67;27.00;;;;;4.59;63.22;100474.31;5055035;28;45276;-78
2024/01/15 03:12:12;;;;;;;;;27.33;23.00;;;;;4.64;63.08;100483.69;5058197;28;45990;-79
2024/01/15 03:14:38;;;;;;;;;21.00;19.67;;;;;4.65;63.18;100482.75;5070906;28;45118;-79
2024/01/15 03:17:03;;;;;;;;;29.00;26.67;;;;;4.51;63.67;100442.47;5071245;28;45593;-78
2024/01/15 03:19:30;;;;;;;;;22.00;18.67;;;;;4.68;64.21;100482.50;5054270;28;45207;-78
2024/01/15 03:21:56;;;;;;;;;20.00;20.00;;;;;4.71;64.71;100482.28;5055962;28;46162;-79
2024/01/15 03:24:21;;;;;;;;;31.00;27.67;;;;;3.67;64.19;100309.16;5075777;28;44934;-79
2024/01/15 03:26:47;;;;;;;;;27.00;21.67;;;;;4.02;63.80;100355.75;5075583;28;44991;-80
2024/01/15 03:29:12;;;;;;;;;20.67;20.33;;;;;4.15;64.22;100372.28;5056706;28;45531;-77
2024/01/15 03:31:37;;;;;;;;;27.33;23.67;;;;;4.83;64.47;100490.13;5057657;28;47285;-79
2024/01/15 03:34:03;;;;;;;;;23.00;20.33;;;;;4.85;65.08;100497.91;5056391;28;45245;-76
2024/01/15 03:36:28;;;;;;;;;20.33;19.00;;;;;4.89;64.60;100500.19;5077606;28;45586;-77
2024/01/15 03:38:54;;;;;;;;;19.00;17.67;;;;;4.93;64.18;100495.53;5076050;28;44972;-78
2024/01/15 03:41:19;;;;;;;;;28.33;23.67;;;;;4.96;64.68;100495.31;5073171;28;45427;-78
2024/01/15 03:43:45;;;;;;;;;28.00;17.67;;;;;4.75;63.69;100452.13;5071772;28;45155;-79
2024/01/15 03:46:10;;;;;;;;;23.67;21.33;;;;;4.99;64.19;100489.81;5071843;28;44997;-79
2024/01/15 03:48:35;;;;;;;;;26.33;23.67;;;;;5.03;64.58;100491.28;5072303;28;44993;-78
2024/01/15 03:51:01;;;;;;;;;26.00;18.67;;;;;5.04;64.53;100487.69;5053832;28;47324;-77
2024/01/15 03:53:26;;;;;;;;;23.33;22.33;;;;;4.88;63.98;100456.38;5072646;28;45081;-79
2024/01/15 03:55:52;;;;;;;;;23.00;20.33;;;;;5.10;64.89;100486.38;5073227;28;45392;-78
2024/01/15 03:58:18;;;;;;;;;25.00;21.00;;;;;4.96;63.68;100447.88;5073387;28;45408;-78
2024/01/15 04:00:44;;;;;;;;;22.33;18.67;;;;;4.92;64.04;100438.53;5054606;28;47437;-78
2024/01/15 04:03:09;;;;;;;;;27.33;21.00;;;;;5.03;64.17;100450.91;5071923;28;45278;-80
2024/01/15 04:05:35;;;;;;;;;21.00;20.00;;;;;4.43;63.99;100338.69;5072114;28;45262;-79
2024/01/15 04:08:00;;;;;;;;;26.67;21.67;;;;;5.02;63.89;100436.06;5072930;28;45287;-79
2024/01/15 04:10:26;;;;;;;;;19.33;17.00;;;;;5.19;65.05;100454.03;5071906;28;44999;-77
2024/01/15 04:12:51;;;;;;;;;20.33;17.33;;;;;5.19;64.75;100446.13;5054815;28;45100;-80
2024/01/15 04:15:17;;;;;;;;;20.67;17.00;;;;;5.22;64.11;100445.09;5074084;28;45036;-78
2024/01/15 04:17:42;;;;;;;;;20.67;18.33;;;;;4.57;64.08;100335.84;5072298;28;45291;-78
2024/01/15 04:20:08;;;;;;;;;20.33;19.00;;;;;5.01;64.24;100402.78;5053358;28;47362;-78
2024/01/15 04:22:37;;;;;;;;;19.67;16.33;;;;;5.24;64.52;100441.38;5073037;28;45527;-77
2024/01/15 04:25:03;;;;;;;;;24.67;21.67;;;;;4.70;64.65;100341.03;5056623;28;45079;-79
2024/01/15 04:27:29;;;;;;;;;24.00;21.33;;;;;5.17;64.84;100440.16;5057935;28;44975;-79
2024/01/15 04:29:54;;;;;;;;;26.00;18.67;;;;;5.10;64.56;100418.72;5074457;28;45250;-79
2024/01/15 04:32:20;;;;;;;;;20.67;17.33;;;;;5.16;65.30;100427.94;5075926;28;44872;-78
2024/01/15 04:34:45;;;;;;;;;23.67;19.67;;;;;4.91;64.88;100386.81;5073929;28;45001;-79
2024/01/15 04:37:11;;;;;;;;;22.67;19.00;;;;;5.22;64.62;100437.19;5053524;28;45380;-79
2024/01/15 04:39:36;;;;;;;;;19.33;16.67;;;;;5.22;64.83;100424.84;5072036;28;45001;-79
2024/01/15 04:42:03;;;;;;;;;26.00;22.67;;;;;4.94;65.46;100381.31;5071281;28;45077;-78
2024/01/15 04:44:29;;;;;;;;;15.33;14.00;;;;;5.23;65.46;100423.88;5049389;28;45511;-80
2024/01/15 04:46:54;;;;;;;;;23.00;18.33;;;;;5.09;65.41;100401.22;5056767;28;45579;-79
2024/01/15 04:49:22;;;;;;;;;15.00;15.00;;;;;4.81;65.44;100335.81;5056192;28;46127;-80
2024/01/15 04:51:47;;;;;;;;;21.00;18.67;;;;;4.32;64.96;100255.28;5057256;28;45542;-80
2024/01/15 04:54:17;;;;;;;;;21.00;19.67;;;;;5.03;65.29;100379.78;5056212;28;45501;-78
2024/01/15 04:56:42;;;;;;;;;17.67;17.67;;;;;5.09;65.10;100395.94;5056104;28;45404;-80
2024/01/15 04:59:08;;;;;;;;;22.00;20.33;;;;;5.13;65.95;100407.94;5056231;28;45997;-77
2024/01/15 05:01:33;;;;;;;;;18.33;15.00;;;;;4.72;66.02;100344.38;5057127;28;45197;-79
2024/01/15 05:03:59;;;;;;;;;21.00;16.67;;;;;4.91;66.15;100371.00;5056836;28;45506;-80
2024/01/15 05:06:25;;;;;;;;;15.00;12.67;;;;;4.74;66.22;100360.91;5057187;28;45481;-78
2024/01/15 05:08:51;;;;;;;;;17.67;16.67;;;;;4.72;66.92;100333.84;5056203;28;46400;-79
2024/01/15 05:11:16;;;;;;;;;18.33;16.33;;;;;4.95;66.61;100387.41;5056844;28;45495;-80
2024/01/15 05:13:41;;;;;;;;;19.33;15.00;;;;;5.08;67.22;100410.09;5060320;28;44848;-80
2024/01/15 05:16:07;;;;;;;;;19.00;17.00;;;;;4.63;66.90;100334.56;5061737;28;45676;-78
2024/01/15 05:18:32;;;;;;;;;23.67;19.33;;;;;4.49;67.83;100317.16;5058808;28;45395;-79
2024/01/15 05:20:58;;;;;;;;;16.33;13.00;;;;;5.00;67.56;100412.44;5057944;28;45498;-79
2024/01/15 05:23:23;;;;;;;;;14.00;11.33;;;;;5.00;67.63;100412.44;5059650;28;45512;-76
2024/01/15 05:25:49;;;;;;;;;18.33;16.00;;;;;5.00;67.70;100407.19;5058623;28;45214;-79
2024/01/15 05:28:14;;;;;;;;;13.67;12.67;;;;;4.35;67.72;100294.50;5057800;28;45899;-80
2024/01/15 05:30:40;;;;;;;;;18.67;16.00;;;;;4.23;67.33;100280.50;5058052;28;45243;-79
2024/01/15 05:33:07;;;;;;;;;17.33;15.67;;;;;4.75;66.93;100360.78;5058279;28;45430;-79
2024/01/15 05:35:32;;;;;;;;;14.33;14.33;;;;;4.82;67.35;100371.72;5040589;28;45312;-78
2024/01/15 05:37:58;;;;;;;;;20.33;16.33;;;;;4.94;67.41;100376.03;5056069;28;45966;-78
2024/01/15 05:40:23;;;;;;;;;16.67;15.00;;;;;4.93;67.42;100358.56;5055411;28;45561;-79
2024/01/15 05:42:48;;;;;;;;;22.00;17.33;;;;;4.86;67.31;100354.72;5036605;28;45397;-78
2024/01/15 05:45:14;;;;;;;;;15.67;13.00;;;;;4.62;67.18;100293.41;5054744;28;45501;-79
2024/01/15 05:47:39;;;;;;;;;16.33;14.67;;;;;4.07;66.55;100205.47;5054752;28;45717;-78
2024/01/15 05:50:06;;;;;;;;;14.00;12.33;;;;;5.26;67.64;100391.19;5055644;28;45453;-80
2024/01/15 05:52:32;;;;;;;;;16.33;13.33;;;;;4.92;66.61;100325.28;5055868;28;45483;-79
2024/01/15 05:54:57;;;;;;;;;12.67;12.33;;;;;5.28;67.19;100386.63;5037474;28;45430;-79
2024/01/15 05:57:23;;;;;;;;;16.33;15.33;;;;;5.29;66.76;100375.13;5056152;28;46375;-80
2024/01/15 05:59:49;;;;;;;;;17.00;15.67;;;;;5.04;66.54;100334.88;5055881;28;45362;-79
2024/01/15 06:02:15;;;;;;;;;19.00;14.67;;;;;5.25;66.68;100366.63;5056156;28;45311;-79
2024/01/15 06:04:40;;;;;;;;;17.33;15.00;;;;;5.34;67.51;100378.25;5062090;28;45438;-79
2024/01/15 06:07:05;;;;;;;;;14.00;12.67;;;;;5.31;66.53;100367.94;5061885;28;45323;-78
2024/01/15 06:09:31;;;;;;;;;14.67;14.67;;;;;5.29;66.59;100360.16;5055622;28;45470;-79
2024/01/15 06:11:57;;;;;;;;;17.33;12.33;;;;;5.18;66.48;100336.41;5055345;28;45362;-79
2024/01/15 06:14:24;;;;;;;;;14.33;12.33;;;;;4.80;67.07;100278.78;5037756;28;45811;-79
2024/01/15 06:16:50;;;;;;;;;15.33;13.33;;;;;5.04;66.64;100321.69;5037925;28;47043;-79
2024/01/15 06:19:15;;;;;;;;;15.00;12.67;;;;;4.51;66.89;100218.69;5058422;28;45460;-79
2024/01/15 06:21:41;;;;;;;;;16.00;12.67;;;;;5.43;66.54;100373.09;5058884;28;45341;-79
2024/01/15 06:24:07;;;;;;;;;12.67;11.00;;;;;5.33;66.54;100347.56;5059204;28;45426;-79
2024/01/15 06:26:32;;;;;;;;;16.33;13.67;;;;;4.95;66.90;100282.03;5060991;28;45523;-80
2024/01/15 06:28:57;;;;;;;;;20.67;15.33;;;;;4.74;66.94;100247.69;5042372;28;45514;-79
2024/01/15 06:31:23;;;;;;;;;11.67;8.00;;;;;5.19;66.80;100312.56;5060393;28;45679;-80
2024/01/15 06:33:49;;;;;;;;;12.00;10.00;;;;;4.92;67.32;100267.31;5059162;28;45363;-79
2024/01/15 06:36:16;;;;;;;;;10.33;10.33;;;;;4.59;67.52;100223.38;5040792;28;46853;-80
2024/01/15 06:38:41;;;;;;;;;11.00;9.00;;;;;4.85;67.65;100261.69;5058130;28;45710;-81
2024/01/15 06:41:06;;;;;;;;;13.00;11.33;;;;;5.60;67.52;100382.31;5054782;28;45544;-80
2024/01/15 06:43:32;;;;;;;;;12.67;11.00;;;;;5.64;67.06;100391.66;5055386;28;45217;-79
2024/01/15 06:45:57;;;;;;;;;10.67;10.67;;;;;5.30;66.60;100342.53;5055106;28;45853;-81
2024/01/15 06:48:23;;;;;;;;;17.00;13.00;;;;;5.67;66.76;100394.06;5065087;28;45505;-79
2024/01/15 06:50:48;;;;;;;;;17.33;16.00;;;;;5.67;67.35;100386.16;5071764;28;44997;-80
2024/01/15 06:53:14;;;;;;;;;10.00;8.67;;;;;5.13;66.53;100294.63;5071808;28;45021;-81
2024/01/15 06:55:39;;;;;;;;;15.33;15.00;;;;;5.65;66.87;100366.97;5073430;28;45187;-79
2024/01/15 06:58:05;;;;;;;;;17.33;15.67;;;;;5.59;66.92;100375.34;5075655;28;45115;-79
2024/01/15 07:00:30;;;;;;;;;12.33;12.33;;;;;5.22;66.50;100319.44;5073456;28;45049;-81
2024/01/15 07:02:56;;;;;;;;;11.67;11.67;;;;;4.99;66.85;100280.84;5073874;28;45000;-81
2024/01/15 07:05:22;;;;;;;;;18.33;15.33;;;;;4.98;66.62;100282.63;5073428;28;45653;-80
2024/01/15 07:07:47;;;;;;;;;14.33;13.67;;;;;5.59;66.42;100377.16;5073957;28;45133;-80
2024/01/15 07:10:13;;;;;;;;;17.00;13.33;;;;;5.68;66.35;100387.81;5059851;28;45429;-81
2024/01/15 07:12:41;;;;;;;;;19.00;15.67;;;;;5.69;66.75;100400.06;5066390;28;45148;-80
2024/01/15 07:15:08;;;;;;;;;15.33;12.67;;;;;5.25;66.59;100310.44;5074307;28;45061;-79
2024/01/15 07:17:33;;;;;;;;;20.00;15.33;;;;;5.70;66.76;100374.50;5075429;28;45158;-79
2024/01/15 07:19:58;;;;;;;;;14.00;14.00;;;;;5.55;66.46;100355.47;5073818;28;45253;-80
2024/01/15 07:22:24;;;;;;;;;18.00;16.00;;;;;5.40;66.96;100314.47;5075551;28;45021;-81
2024/01/15 07:24:49;;;;;;;;;18.00;17.00;;;;;5.71;66.36;100395.50;5056367;28;45692;-86
2024/01/15 07:27:15;;;;;;;;;14.67;11.67;;;;;5.30;66.63;100332.00;5068865;28;45345;-80
2024/01/15 07:29:40;;;;;;;;;18.67;15.33;;;;;5.37;66.74;100341.09;5050764;28;45547;-80
2024/01/15 07:32:07;;;;;;;;;16.33;14.67;;;;;3.92;66.63;100100.47;5058428;28;45595;-81
2024/01/15 07:34:35;;;;;;;;;21.67;14.67;;;;;5.75;66.99;100415.38;5057845;28;45868;-82
2024/01/15 07:37:00;;;;;;;;;20.33;13.67;;;;;5.01;67.06;100294.75;5037569;28;45640;-81
2024/01/15 07:39:26;;;;;;;;;17.67;15.67;;;;;5.74;66.63;100413.72;5057010;28;45493;-79
2024/01/15 07:41:52;;;;;;;;;19.33;17.00;;;;;4.88;67.00;100277.25;5058096;28;45474;-79
2024/01/15 07:44:17;;;;;;;;;17.00;13.00;;;;;5.37;66.21;100356.91;5059838;28;45417;-82
2024/01/15 07:46:49;;;;;;;;;20.33;15.33;;;;;5.61;65.59;100391.91;5061973;28;45252;-80
2024/01/15 07:49:14;;;;;;;;;15.67;12.33;;;;;5.64;66.04;100391.66;5059934;28;45220;-82
2024/01/15 07:51:40;;;;;;;;;16.67;13.67;;;;;5.58;66.09;100394.78;5060463;28;45223;-81
2024/01/15 07:54:06;;;;;;;;;22.67;17.00;;;;;5.76;66.13;100416.22;5046216;28;45504;-79
2024/01/15 07:56:32;;;;;;;;;19.00;16.00;;;;;4.41;66.25;100215.13;5038295;28;46093;-81
2024/01/15 07:58:58;;;;;;;;;20.00;16.33;;;;;5.73;65.94;100430.50;5064510;28;45338;-79
2024/01/15 08:01:24;;;;;;;;;15.67;13.33;;;;;5.65;66.47;100419.72;5073502;28;45273;-80
2024/01/15 08:03:55;;;;;;;;;16.33;15.00;;;;;5.42;66.92;100381.97;5053586;28;46433;-82
2024/01/15 08:06:21;;;;;;;;;18.67;17.00;;;;;5.78;66.33;100430.97;5071763;28;45042;-80
2024/01/15 08:08:46;;;;;;;;;22.67;18.67;;;;;5.71;66.71;100421.88;5053860;28;44969;-79
2024/01/15 08:11:11;;;;;;;;;12.00;10.67;;;;;5.54;65.93;100401.25;5055206;28;45128;-81
2024/01/15 08:13:37;;;;;;;;;19.67;17.00;;;;;5.79;66.04;100440.56;5071723;28;46030;-81
2024/01/15 08:16:02;;;;;;;;;19.67;16.00;;;;;5.62;65.75;100409.41;5072201;28;44848;-81
2024/01/15 08:18:27;;;;;;;;;16.67;15.00;;;;;5.52;65.57;100386.50;5073829;28;45054;-80
2024/01/15 08:20:53;;;;;;;;;23.67;18.33;;;;;5.48;65.78;100389.41;5074175;28;44898;-80
2024/01/15 08:23:19;;;;;;;;;19.67;17.67;;;;;5.88;66.13;100451.34;5072447;28;45189;-81
2024/01/15 08:25:45;;;;;;;;;14.33;12.33;;;;;5.89;66.75;100453.03;5072507;28;45305;-81
2024/01/15 08:28:10;;;;;;;;;21.00;18.00;;;;;5.80;65.95;100430.84;5058797;28;45360;-82
2024/01/15 08:30:35;;;;;;;;;20.33;17.00;;;;;5.93;65.99;100450.06;5077858;28;45056;-80
2024/01/15 08:33:01;;;;;;;;;20.33;19.00;;;;;5.85;65.67;100439.25;5056559;28;47493;-80
2024/01/15 08:35:27;;;;;;;;;15.33;15.33;;;;;5.47;65.40;100368.41;5065300;28;45595;-80
2024/01/15 08:37:55;;;;;;;;;20.67;16.33;;;;;5.92;65.39;100452.81;5043378;28;45491;-82
2024/01/15 08:40:20;;;;;;;;;18.33;18.00;;;;;5.30;65.19;100345.19;5061174;28;45327;-81
2024/01/15 08:42:46;;;;;;;;;19.00;18.00;;;;;5.99;64.86;100464.56;5061058;28;45549;-80
2024/01/15 08:45:12;;;;;;;;;17.33;17.00;;;;;5.80;64.75;100447.50;5059521;28;45315;-81
2024/01/15 08:47:37;;;;;;;;;13.67;12.67;;;;;5.14;65.06;100341.09;5038202;28;45256;-80
2024/01/15 08:50:04;;;;;;;;;20.33;13.00;;;;;5.63;65.03;100426.91;5038138;28;45509;-80
2024/01/15 08:52:29;;;;;;;;;19.00;17.00;;;;;5.39;65.03;100395.38;5053587;28;46466;-82
2024/01/15 08:54:57;;;;;;;;;18.00;13.33;;;;;5.45;65.13;100401.97;5055331;28;45478;-79
2024/01/15 08:57:23;;;;;;;;;20.33;17.67;;;;;5.40;64.47;100394.41;5051738;28;45557;-81
2024/01/15 08:59:48;;;;;;;;;25.67;18.00;;;;;4.89;64.55;100312.34;5058774;28;45415;-79
2024/01/15 09:02:14;;;;;;;;;17.00;14.67;;;;;5.96;64.53;100501.75;5055994;28;45507;-82
2024/01/15 09:04:40;;;;;;;;;16.00;16.00;;;;;5.32;64.44;100393.34;5056200;28;45269;-83
2024/01/15 09:07:06;;;;;;;;;20.67;15.33;;;;;5.75;64.47;100468.13;5056983;28;45914;-82
2024/01/15 09:09:31;;;;;;;;;3.50;3.50;;;;;5.99;63.99;100502.34;5061046;28;45351;-79
2024/01/15 09:11:57;;;;;;;;;17.33;17.33;;;;;6.04;63.48;100515.19;5060114;28;46457;-82
2024/01/15 09:14:24;;;;;;;;;16.33;13.67;;;;;5.16;63.07;100370.78;5058671;28;45250;-82
2024/01/15 09:16:49;;;;;;;;;16.67;16.33;;;;;5.31;62.83;100391.66;5041195;28;44926;-83
2024/01/15 09:19:15;;;;;;;;;19.67;16.00;;;;;5.71;63.43;100471.13;5058377;28;45459;-82
2024/01/15 09:21:40;;;;;;;;;16.00;13.67;;;;;5.30;63.35;100393.47;5061098;28;45399;-83
2024/01/15 09:24:06;;;;;;;;;19.00;16.67;;;;;5.87;63.07;100471.63;5059673;28;45480;-81
2024/01/15 09:26:31;;;;;;;;;14.67;14.67;;;;;5.46;61.89;100393.13;5051755;28;45056;-80
2024/01/15 09:28:57;;;;;;;;;16.00;15.67;;;;;5.21;61.46;100343.28;5059354;28;45499;-82
2024/01/15 09:31:23;;;;;;;;;13.00;12.00;;;;;5.59;60.83;100409.63;5033016;28;47952;-83
2024/01/15 09:33:52;;;;;;;;;13.00;11.00;;;;;6.22;60.46;100513.75;5052782;28;45506;-81
2024/01/15 09:36:17;;;;;;;;;17.00;9.67;;;;;5.97;59.43;100462.03;5035570;28;45369;-80
2024/01/15 09:38:43;;;;;;;;;15.33;13.00;;;;;6.19;59.62;100502.56;5052686;28;45819;-83
2024/01/15 09:41:08;;;;;;;;;15.67;14.67;;;;;6.43;59.66;100529.69;5051042;28;45687;-81
2024/01/15 09:43:37;;;;;;;;;13.00;11.00;;;;;5.73;58.95;100401.47;5020773;28;45463;-80
2024/01/15 09:46:03;;;;;;;;;10.00;10.00;;;;;6.45;58.56;100524.28;5052987;28;45604;-81
2024/01/15 09:48:29;;;;;;;;;15.00;11.00;;;;;6.40;58.31;100543.94;5055597;28;45508;-81
2024/01/15 09:50:58;;;;;;;;;10.00;10.00;;;;;6.25;58.49;100529.34;5053331;28;46190;-80
2024/01/15 09:53:25;;;;;;;;;13.00;12.00;;;;;6.29;58.33;100520.22;5050487;28;45558;-81
2024/01/15 09:55:50;;;;;;;;;16.33;12.00;;;;;5.53;58.52;100386.38;5037680;28;45586;-78
2024/01/15 09:58:16;;;;;;;;;12.33;9.67;;;;;6.41;58.65;100523.69;5055983;28;45487;-80
2024/01/15 10:00:44;;;;;;;;;16.00;12.33;;;;;5.66;59.02;100404.72;5054270;28;49091;-82
2024/01/15 10:03:11;;;;;;;;;14.00;13.00;;;;;6.51;58.17;100529.88;5056122;28;45536;-82
2024/01/15 10:05:37;;;;;;;;;11.00;9.67;;;;;6.48;57.56;100508.19;5052181;28;45374;-82
2024/01/15 10:08:04;;;;;;;;;11.00;11.00;;;;;4.96;56.51;100260.00;5040795;28;45362;-83
2024/01/15 10:10:32;;;;;;;;;12.00;10.67;;;;;6.36;56.14;100489.69;5055401;28;45509;-81
2024/01/15 10:12:59;;;;;;;;;13.67;13.00;;;;;6.29;57.06;100477.97;5051093;28;45352;-81
2024/01/15 10:15:28;;;;;;;;;10.67;10.67;;;;;6.16;56.49;100461.41;5034742;28;45455;-82
2024/01/15 10:17:54;;;;;;;;;14.00;12.00;;;;;6.52;56.48;100531.56;5035976;28;45359;-80
2024/01/15 10:20:22;;;;;;;;;11.00;9.33;;;;;6.69;56.34;100548.69;5035801;28;45659;-80
2024/01/15 10:22:47;;;;;;;;;12.33;12.33;;;;;5.91;56.87;100414.22;5034795;28;45489;-81
2024/01/15 10:25:14;;;;;;;;;13.00;9.33;;;;;6.70;55.75;100545.09;5037379;28;45414;-82
2024/01/15 10:27:41;;;;;;;;;10.67;10.00;;;;;6.46;55.90;100507.47;5017197;28;45593;-82
2024/01/15 10:30:08;;;;;;;;;7.33;6.33;;;;;6.52;54.64;100521.00;5035042;28;46642;-81
2024/01/15 10:32:33;;;;;;;;;9.33;9.33;;;;;5.42;54.52;100360.03;5036788;28;45624;-82
2024/01/15 10:34:59;;;;;;;;;10.00;10.00;;;;;6.29;53.25;100499.09;5006989;28;45488;-83
2024/01/15 10:37:25;;;;;;;;;9.67;8.67;;;;;5.03;53.68;100306.00;5019626;28;45907;-83
2024/01/15 10:39:51;;;;;;;;;7.00;6.67;;;;;5.26;53.01;100354.28;5022597;28;45351;-81
2024/01/15 10:42:18;;;;;;;;;4.00;4.00;;;;;6.47;51.25;100561.97;5025789;28;45340;-82
2024/01/15 10:44:46;;;;;;;;;7.00;5.67;;;;;6.19;52.34;100528.97;5029942;28;45416;-83
2024/01/15 10:47:12;;;;;;;;;7.67;6.67;;;;;6.44;52.13;100562.22;5009238;28;46204;-83
2024/01/15 10:49:37;;;;;;;;;6.00;4.00;;;;;5.31;52.54;100386.38;5042660;28;45245;-83
2024/01/15 10:52:04;;;;;;;;;9.67;7.67;;;;;6.36;53.16;100557.50;5042460;28;45482;-83
2024/01/15 10:54:30;;;;;;;;;5.33;5.33;;;;;5.72;52.43;100455.19;5040121;28;45609;-84
2024/01/15 10:56:58;;;;;;;;;4.67;4.00;;;;;6.11;51.97;100521.66;5041850;28;45600;-79
2024/01/15 10:59:24;;;;;;;;;7.67;6.33;;;;;6.36;52.00;100568.91;5038308;28;45496;-83
2024/01/15 11:01:55;;;;;;;;;11.33;5.00;;;;;5.80;50.74;100468.59;5032851;28;45644;-81
2024/01/15 11:04:26;;;;;;;;;4.33;4.33;;;;;6.39;51.24;100562.53;5005720;28;45523;-83
2024/01/15 11:06:53;;;;;;;;;5.00;5.00;;;;;6.46;50.09;100573.47;5038495;28;45245;-80
2024/01/15 11:09:19;;;;;;;;;6.33;5.00;;;;;6.02;50.37;100493.38;5038194;28;46313;-81
2024/01/15 11:11:49;;;;;;;;;5.00;4.00;;;;;6.58;50.55;100565.41;5023547;28;45482;-81
2024/01/15 11:14:43;;;;;;;;;6.67;4.00;;;;;5.48;50.56;100385.91;5038618;28;45382;-80